Galeão - Antônio Carlos Jobim International Airport
SBGL : rendu visible

Aérodrome :











RETROUVEZ-NOUS SUR...

 
LOGIN :

S'inscrire | Disclaimer

   EN    FR    IT 

 









Légende :    VFR   VFR Marginal   IFR   IFR Intensif   IFR Très Intensif
Visi : 
Plafond : 
>= 8 km
>= 3000ft
5 à 8 km
1000 à 3000 ft
1500m à 5 km
500 à 1000 ft
800 à 1500m
200 à 500 ft
< 800m
< 200 ft
Symboles :   Orages  Brouillard  Fortes neiges  Fortes précipitations  Vent > 20 kt






- Altitude de l'aérodrome : 28 ft
- Code IATA : GIG


SBGL - Galeão - Antônio Carlos Jobim International

DERNIER METAR :
  • 301000Z 05002KT CAVOK 27/20 Q1012

METARs EXPIRÉS :
  • 300900Z 07002KT CAVOK 25/21 Q1012
  • 300800Z 16005KT CAVOK 23/19 Q1013

TAF TAF SBGL
Valide du 30 à 06h jusqu'au 01 à 12h UTC


300300Z 3006/0112 07005KT CAVOK TN23/3008Z TX34/3017Z
BECMG 3010/3012 36005KT FEW020
BECMG 3013/3015 09010KT FEW030
BECMG 3016/3018 13010KT
BECMG 3021/3023 09005KT
BECMG 0102/0104 06005KT FEW020
BECMG 0105/0107 34005KT
BECMG 0109/0111 30005KT RMK PHD
FIR SBCW / Amérique du Sud



MET'MAP, la Météo Aéronautique d'un coup d'oeil ! - Copyright ORBIFLY Décembre 2007 - Disclaimer

ORBIFLY MET'MAP TEAM :

Programmation & Développement : Alexandra Zaïnal
Sur une idée originale de : Baudouin d'Aumeries
Assistance à la programmation : Marc-Olivier Méhu
Soutien technique & logistique : Manuel Goepfert

Contact : metmap@orbifly.com




SOURCES & CREDITS :

   NOAA       Earth
Advisory